sensor_id;sensor_type;location;lat;lon;timestamp;pressure;altitude;pressure_sealevel;temperature;humidity
6132;BME280;3097;42.692;23.278;2023-05-01T00:00:14;94978.00;;;12.62;75.25
6132;BME280;3097;42.692;23.278;2023-05-01T00:02:40;94979.81;;;12.61;75.77
6132;BME280;3097;42.692;23.278;2023-05-01T00:05:06;94974.66;;;12.50;75.76
6132;BME280;3097;42.692;23.278;2023-05-01T00:07:32;94986.44;;;12.57;75.53
6132;BME280;3097;42.692;23.278;2023-05-01T00:09:58;94979.94;;;12.55;76.04
6132;BME280;3097;42.692;23.278;2023-05-01T00:12:24;94981.75;;;12.54;75.82
6132;BME280;3097;42.692;23.278;2023-05-01T00:14:50;94961.41;;;12.46;75.89
6132;BME280;3097;42.692;23.278;2023-05-01T00:17:15;94957.63;;;12.37;76.74
6132;BME280;3097;42.692;23.278;2023-05-01T00:19:41;94977.47;;;12.48;76.45
6132;BME280;3097;42.692;23.278;2023-05-01T00:22:06;94973.06;;;12.49;76.65
6132;BME280;3097;42.692;23.278;2023-05-01T00:24:32;94977.38;;;12.43;76.90
6132;BME280;3097;42.692;23.278;2023-05-01T00:26:58;94973.13;;;12.37;76.99
6132;BME280;3097;42.692;23.278;2023-05-01T00:29:23;94980.66;;;12.38;76.59
6132;BME280;3097;42.692;23.278;2023-05-01T00:31:49;94991.78;;;12.39;76.67
6132;BME280;3097;42.692;23.278;2023-05-01T00:34:14;94983.81;;;12.29;77.36
6132;BME280;3097;42.692;23.278;2023-05-01T00:36:40;94988.28;;;12.33;77.10
6132;BME280;3097;42.692;23.278;2023-05-01T00:39:06;94985.31;;;12.25;77.42
6132;BME280;3097;42.692;23.278;2023-05-01T00:41:34;94994.84;;;12.24;77.61
6132;BME280;3097;42.692;23.278;2023-05-01T00:44:00;94992.94;;;12.20;77.35
6132;BME280;3097;42.692;23.278;2023-05-01T00:46:27;94974.44;;;11.99;77.68
6132;BME280;3097;42.692;23.278;2023-05-01T00:48:54;94990.50;;;12.01;78.08
6132;BME280;3097;42.692;23.278;2023-05-01T00:51:20;95003.53;;;12.07;78.55
6132;BME280;3097;42.692;23.278;2023-05-01T00:53:46;95007.34;;;12.04;78.51
6132;BME280;3097;42.692;23.278;2023-05-01T00:56:12;95005.88;;;11.96;78.93
6132;BME280;3097;42.692;23.278;2023-05-01T00:58:39;95010.97;;;11.91;79.32
6132;BME280;3097;42.692;23.278;2023-05-01T01:01:04;95010.28;;;11.84;79.28
6132;BME280;3097;42.692;23.278;2023-05-01T01:03:30;95014.88;;;11.82;79.45
6132;BME280;3097;42.692;23.278;2023-05-01T01:06:14;95014.31;;;11.80;79.35
6132;BME280;3097;42.692;23.278;2023-05-01T01:08:48;95011.03;;;11.73;79.95
6132;BME280;3097;42.692;23.278;2023-05-01T01:11:44;94977.47;;;11.50;80.26
6132;BME280;3097;42.692;23.278;2023-05-01T01:14:16;95001.94;;;11.59;80.79
6132;BME280;3097;42.692;23.278;2023-05-01T01:22:34;94980.72;;;11.34;81.54
6132;BME280;3097;42.692;23.278;2023-05-01T01:25:25;95012.38;;;11.52;81.60
6132;BME280;3097;42.692;23.278;2023-05-01T01:28:05;95023.59;;;11.46;81.85
6132;BME280;3097;42.692;23.278;2023-05-01T01:37:03;95037.81;;;11.25;82.62
6132;BME280;3097;42.692;23.278;2023-05-01T01:39:44;94993.78;;;10.97;82.93
6132;BME280;3097;42.692;23.278;2023-05-01T01:42:28;95030.81;;;11.14;83.62
6132;BME280;3097;42.692;23.278;2023-05-01T01:44:58;95029.13;;;11.08;84.04
6132;BME280;3097;42.692;23.278;2023-05-01T01:47:28;95014.41;;;10.97;84.21
6132;BME280;3097;42.692;23.278;2023-05-01T01:49:57;94977.44;;;10.73;83.95
6132;BME280;3097;42.692;23.278;2023-05-01T01:52:26;95028.44;;;11.01;84.53
6132;BME280;3097;42.692;23.278;2023-05-01T01:54:55;94992.34;;;10.83;84.31
6132;BME280;3097;42.692;23.278;2023-05-01T01:57:23;95020.81;;;11.06;83.78
6132;BME280;3097;42.692;23.278;2023-05-01T01:59:50;94921.63;;;10.37;83.30
6132;BME280;3097;42.692;23.278;2023-05-01T02:02:19;94992.81;;;10.80;83.53
6132;BME280;3097;42.692;23.278;2023-05-01T02:04:47;95023.16;;;10.96;83.62
6132;BME280;3097;42.692;23.278;2023-05-01T02:07:15;95024.25;;;10.89;84.04
6132;BME280;3097;42.692;23.278;2023-05-01T02:09:42;95008.72;;;10.77;84.44
6132;BME280;3097;42.692;23.278;2023-05-01T02:12:10;94915.53;;;10.14;84.98
6132;BME280;3097;42.692;23.278;2023-05-01T02:14:37;95013.06;;;10.76;85.32
6132;BME280;3097;42.692;23.278;2023-05-01T02:17:04;94936.22;;;10.25;85.05
6132;BME280;3097;42.692;23.278;2023-05-01T02:19:31;94990.16;;;10.57;85.00
6132;BME280;3097;42.692;23.278;2023-05-01T02:21:58;95001.56;;;10.79;84.25
6132;BME280;3097;42.692;23.278;2023-05-01T02:24:26;95007.00;;;10.71;84.37
6132;BME280;3097;42.692;23.278;2023-05-01T02:27:03;95005.81;;;10.73;84.74
6132;BME280;3097;42.692;23.278;2023-05-01T02:29:31;95015.53;;;10.71;84.95
6132;BME280;3097;42.692;23.278;2023-05-01T02:31:59;95023.47;;;10.70;86.03
6132;BME280;3097;42.692;23.278;2023-05-01T02:34:25;95017.53;;;10.69;86.35
6132;BME280;3097;42.692;23.278;2023-05-01T02:36:51;95016.75;;;10.69;86.46
6132;BME280;3097;42.692;23.278;2023-05-01T02:39:16;95019.56;;;10.67;85.68
6132;BME280;3097;42.692;23.278;2023-05-01T02:41:42;95023.94;;;10.67;85.61
6132;BME280;3097;42.692;23.278;2023-05-01T02:44:10;95023.78;;;10.62;85.69
6132;BME280;3097;42.692;23.278;2023-05-01T02:46:36;95026.81;;;10.59;85.88
6132;BME280;3097;42.692;23.278;2023-05-01T02:49:03;95027.88;;;10.51;86.10
6132;BME280;3097;42.692;23.278;2023-05-01T02:51:30;95023.28;;;10.53;86.20
6132;BME280;3097;42.692;23.278;2023-05-01T02:53:59;95027.88;;;10.51;86.22
6132;BME280;3097;42.692;23.278;2023-05-01T02:56:25;95023.81;;;10.43;86.34
6132;BME280;3097;42.692;23.278;2023-05-01T02:58:54;95025.44;;;10.38;86.53
6132;BME280;3097;42.692;23.278;2023-05-01T03:01:20;95039.50;;;10.42;86.43
6132;BME280;3097;42.692;23.278;2023-05-01T03:03:45;95027.69;;;10.34;86.74
6132;BME280;3097;42.692;23.278;2023-05-01T03:06:11;94976.94;;;9.98;86.19
6132;BME280;3097;42.692;23.278;2023-05-01T03:08:38;95032.69;;;10.29;86.59
6132;BME280;3097;42.692;23.278;2023-05-01T03:11:07;95025.97;;;10.28;86.61
6132;BME280;3097;42.692;23.278;2023-05-01T03:13:36;95024.41;;;10.27;86.17
6132;BME280;3097;42.692;23.278;2023-05-01T03:16:01;95028.38;;;10.23;87.07
6132;BME280;3097;42.692;23.278;2023-05-01T03:18:28;95039.13;;;10.20;87.71
6132;BME280;3097;42.692;23.278;2023-05-01T03:20:54;95004.47;;;9.98;88.17
6132;BME280;3097;42.692;23.278;2023-05-01T03:23:21;95030.81;;;10.18;88.02
6132;BME280;3097;42.692;23.278;2023-05-01T03:25:47;95033.41;;;10.18;88.01
6132;BME280;3097;42.692;23.278;2023-05-01T03:28:13;95031.66;;;10.12;88.24
6132;BME280;3097;42.692;23.278;2023-05-01T03:30:38;94979.75;;;9.72;88.47
6132;BME280;3097;42.692;23.278;2023-05-01T03:33:04;95024.91;;;9.93;89.18
6132;BME280;3097;42.692;23.278;2023-05-01T03:35:33;95046.31;;;10.12;89.65
6132;BME280;3097;42.692;23.278;2023-05-01T03:37:58;95045.94;;;10.08;89.74
6132;BME280;3097;42.692;23.278;2023-05-01T03:40:24;95047.91;;;10.13;89.37
6132;BME280;3097;42.692;23.278;2023-05-01T03:42:49;95052.59;;;10.22;88.53
6132;BME280;3097;42.692;23.278;2023-05-01T03:45:15;95055.09;;;10.29;88.25
6132;BME280;3097;42.692;23.278;2023-05-01T03:47:40;95059.59;;;10.33;88.08
6132;BME280;3097;42.692;23.278;2023-05-01T03:50:06;95062.03;;;10.28;88.18
6132;BME280;3097;42.692;23.278;2023-05-01T03:52:32;95070.03;;;10.38;87.71
6132;BME280;3097;42.692;23.278;2023-05-01T03:54:58;95077.69;;;10.45;86.82
6132;BME280;3097;42.692;23.278;2023-05-01T03:57:23;95080.50;;;10.43;86.54
6132;BME280;3097;42.692;23.278;2023-05-01T03:59:49;95079.72;;;10.43;86.60
6132;BME280;3097;42.692;23.278;2023-05-01T04:02:14;95085.66;;;10.43;86.68
6132;BME280;3097;42.692;23.278;2023-05-01T04:04:40;95068.25;;;10.39;86.19
6132;BME280;3097;42.692;23.278;2023-05-01T04:07:05;95086.00;;;10.47;86.34
6132;BME280;3097;42.692;23.278;2023-05-01T04:09:31;95080.06;;;10.46;86.47
6132;BME280;3097;42.692;23.278;2023-05-01T04:11:57;95085.09;;;10.41;86.52
6132;BME280;3097;42.692;23.278;2023-05-01T04:14:22;95081.50;;;10.42;86.57
6132;BME280;3097;42.692;23.278;2023-05-01T04:16:48;95080.06;;;10.46;86.40
6132;BME280;3097;42.692;23.278;2023-05-01T04:19:14;95082.94;;;10.57;86.36
6132;BME280;3097;42.692;23.278;2023-05-01T04:21:40;95063.31;;;10.56;86.64
6132;BME280;3097;42.692;23.278;2023-05-01T04:24:05;95085.28;;;10.76;86.31
6132;BME280;3097;42.692;23.278;2023-05-01T04:26:31;95084.47;;;10.94;86.17
6132;BME280;3097;42.692;23.278;2023-05-01T04:28:56;95086.25;;;11.23;85.27
6132;BME280;3097;42.692;23.278;2023-05-01T04:31:21;95083.06;;;11.51;84.11
6132;BME280;3097;42.692;23.278;2023-05-01T04:33:47;95082.16;;;11.99;82.58
6132;BME280;3097;42.692;23.278;2023-05-01T04:36:12;95074.28;;;12.92;78.54
6132;BME280;3097;42.692;23.278;2023-05-01T04:38:38;95088.50;;;13.80;74.48
6132;BME280;3097;42.692;23.278;2023-05-01T04:41:06;95058.44;;;14.51;69.81
6132;BME280;3097;42.692;23.278;2023-05-01T04:43:32;95091.19;;;15.81;65.91
6132;BME280;3097;42.692;23.278;2023-05-01T04:45:57;95082.75;;;16.90;61.87
6132;BME280;3097;42.692;23.278;2023-05-01T04:48:23;95082.44;;;17.94;57.80
6132;BME280;3097;42.692;23.278;2023-05-01T04:50:48;95081.22;;;18.81;54.75
6132;BME280;3097;42.692;23.278;2023-05-01T04:53:13;95084.66;;;19.31;52.41
6132;BME280;3097;42.692;23.278;2023-05-01T04:55:39;95081.75;;;19.82;51.15
6132;BME280;3097;42.692;23.278;2023-05-01T04:58:04;95084.84;;;20.70;49.41
6132;BME280;3097;42.692;23.278;2023-05-01T05:00:30;95075.19;;;21.51;46.82
6132;BME280;3097;42.692;23.278;2023-05-01T05:02:56;95088.06;;;22.50;44.82
6132;BME280;3097;42.692;23.278;2023-05-01T05:05:23;95086.50;;;23.31;43.00
6132;BME280;3097;42.692;23.278;2023-05-01T05:07:48;95078.00;;;24.14;40.86
6132;BME280;3097;42.692;23.278;2023-05-01T05:10:14;95081.72;;;25.06;38.69
6132;BME280;3097;42.692;23.278;2023-05-01T05:12:39;95085.06;;;25.80;37.11
6132;BME280;3097;42.692;23.278;2023-05-01T05:15:05;95085.44;;;26.43;35.97
6132;BME280;3097;42.692;23.278;2023-05-01T05:17:30;95100.81;;;27.25;34.72
6132;BME280;3097;42.692;23.278;2023-05-01T05:19:56;95093.91;;;27.62;33.18
6132;BME280;3097;42.692;23.278;2023-05-01T05:22:21;95100.34;;;27.94;32.63
6132;BME280;3097;42.692;23.278;2023-05-01T05:24:52;95097.81;;;28.19;31.73
6132;BME280;3097;42.692;23.278;2023-05-01T05:27:18;95109.09;;;28.07;31.26
6132;BME280;3097;42.692;23.278;2023-05-01T05:29:44;95104.09;;;27.93;31.43
6132;BME280;3097;42.692;23.278;2023-05-01T05:32:10;95110.72;;;28.65;32.34
6132;BME280;3097;42.692;23.278;2023-05-01T05:34:36;95030.84;;;28.79;31.04
6132;BME280;3097;42.692;23.278;2023-05-01T05:37:02;95107.22;;;29.34;29.21
6132;BME280;3097;42.692;23.278;2023-05-01T05:39:27;95109.44;;;29.20;30.11
6132;BME280;3097;42.692;23.278;2023-05-01T05:41:53;95110.38;;;29.76;29.70
6132;BME280;3097;42.692;23.278;2023-05-01T05:44:19;95106.91;;;30.44;28.55
6132;BME280;3097;42.692;23.278;2023-05-01T05:46:45;95108.59;;;31.11;28.47
6132;BME280;3097;42.692;23.278;2023-05-01T05:49:10;95105.16;;;31.80;27.61
6132;BME280;3097;42.692;23.278;2023-05-01T05:51:36;95112.44;;;32.41;27.05
6132;BME280;3097;42.692;23.278;2023-05-01T05:54:01;95107.78;;;32.80;26.67
6132;BME280;3097;42.692;23.278;2023-05-01T05:56:27;95102.72;;;33.21;26.57
6132;BME280;3097;42.692;23.278;2023-05-01T05:58:52;95102.97;;;33.68;25.18
6132;BME280;3097;42.692;23.278;2023-05-01T06:01:18;95108.66;;;34.23;25.15
6132;BME280;3097;42.692;23.278;2023-05-01T06:03:43;95118.31;;;34.31;24.57
6132;BME280;3097;42.692;23.278;2023-05-01T06:06:09;95114.31;;;34.18;24.22
6132;BME280;3097;42.692;23.278;2023-05-01T06:08:34;95116.69;;;34.23;24.43
6132;BME280;3097;42.692;23.278;2023-05-01T06:11:01;95105.75;;;34.39;23.90
6132;BME280;3097;42.692;23.278;2023-05-01T06:13:29;95118.00;;;34.40;23.57
6132;BME280;3097;42.692;23.278;2023-05-01T06:15:55;95116.28;;;33.91;24.01
6132;BME280;3097;42.692;23.278;2023-05-01T06:18:20;95121.16;;;34.15;24.58
6132;BME280;3097;42.692;23.278;2023-05-01T06:20:46;95111.75;;;33.65;24.08
6132;BME280;3097;42.692;23.278;2023-05-01T06:23:12;95127.72;;;33.09;24.61
6132;BME280;3097;42.692;23.278;2023-05-01T06:25:38;95113.56;;;32.82;25.75
6132;BME280;3097;42.692;23.278;2023-05-01T06:28:04;95114.38;;;32.86;25.25
6132;BME280;3097;42.692;23.278;2023-05-01T06:30:29;95092.78;;;32.72;25.80
6132;BME280;3097;42.692;23.278;2023-05-01T06:32:55;95116.47;;;32.74;25.94
6132;BME280;3097;42.692;23.278;2023-05-01T06:35:20;95118.88;;;33.05;26.72
6132;BME280;3097;42.692;23.278;2023-05-01T06:37:45;95122.63;;;33.00;26.47
6132;BME280;3097;42.692;23.278;2023-05-01T06:40:12;95119.22;;;33.26;26.68
6132;BME280;3097;42.692;23.278;2023-05-01T06:42:39;95124.22;;;33.05;25.70
6132;BME280;3097;42.692;23.278;2023-05-01T06:45:07;95128.09;;;33.08;26.59
6132;BME280;3097;42.692;23.278;2023-05-01T06:47:33;95096.22;;;32.11;26.51
6132;BME280;3097;42.692;23.278;2023-05-01T06:49:58;95109.84;;;31.33;28.35
6132;BME280;3097;42.692;23.278;2023-05-01T06:52:24;95088.16;;;30.40;29.33
6132;BME280;3097;42.692;23.278;2023-05-01T06:54:49;95121.09;;;30.20;29.81
6132;BME280;3097;42.692;23.278;2023-05-01T06:57:15;95135.28;;;29.84;31.57
6132;BME280;3097;42.692;23.278;2023-05-01T06:59:40;95133.16;;;29.37;31.52
6132;BME280;3097;42.692;23.278;2023-05-01T07:02:06;95134.44;;;28.95;32.47
6132;BME280;3097;42.692;23.278;2023-05-01T07:04:32;95136.13;;;28.54;31.98
6132;BME280;3097;42.692;23.278;2023-05-01T07:06:57;95095.16;;;27.98;32.08
6132;BME280;3097;42.692;23.278;2023-05-01T07:09:23;95124.00;;;27.79;33.53
6132;BME280;3097;42.692;23.278;2023-05-01T07:11:48;95133.13;;;27.40;32.95
6132;BME280;3097;42.692;23.278;2023-05-01T07:14:13;95131.56;;;27.39;35.66
6132;BME280;3097;42.692;23.278;2023-05-01T07:16:39;95096.16;;;27.22;34.17
6132;BME280;3097;42.692;23.278;2023-05-01T07:19:06;95136.59;;;27.31;34.11
6132;BME280;3097;42.692;23.278;2023-05-01T07:21:32;95147.69;;;26.95;33.26
6132;BME280;3097;42.692;23.278;2023-05-01T07:23:57;95148.38;;;26.67;33.94
6132;BME280;3097;42.692;23.278;2023-05-01T07:26:26;95111.59;;;26.44;34.31
6132;BME280;3097;42.692;23.278;2023-05-01T07:28:51;95135.84;;;26.84;34.35
6132;BME280;3097;42.692;23.278;2023-05-01T07:31:17;95146.97;;;27.16;34.48
6132;BME280;3097;42.692;23.278;2023-05-01T07:33:43;95140.03;;;27.03;33.52
6132;BME280;3097;42.692;23.278;2023-05-01T07:36:08;95147.69;;;26.95;35.53
6132;BME280;3097;42.692;23.278;2023-05-01T07:38:34;95123.06;;;27.04;35.60
6132;BME280;3097;42.692;23.278;2023-05-01T07:40:59;95146.44;;;27.52;34.48
6132;BME280;3097;42.692;23.278;2023-05-01T07:43:25;95144.94;;;27.92;34.71
6132;BME280;3097;42.692;23.278;2023-05-01T07:45:54;95143.78;;;28.23;34.23
6132;BME280;3097;42.692;23.278;2023-05-01T07:48:21;95143.41;;;28.45;33.80
6132;BME280;3097;42.692;23.278;2023-05-01T07:50:46;95146.06;;;28.45;32.90
6132;BME280;3097;42.692;23.278;2023-05-01T07:53:12;95136.09;;;28.42;32.68
6132;BME280;3097;42.692;23.278;2023-05-01T07:55:37;95138.03;;;27.29;32.51
6132;BME280;3097;42.692;23.278;2023-05-01T07:58:03;95148.22;;;26.63;33.22
6132;BME280;3097;42.692;23.278;2023-05-01T08:00:28;95143.16;;;26.24;34.55
6132;BME280;3097;42.692;23.278;2023-05-01T08:02:54;95139.72;;;26.49;36.65
6132;BME280;3097;42.692;23.278;2023-05-01T08:05:19;95133.38;;;26.88;33.86
6132;BME280;3097;42.692;23.278;2023-05-01T08:07:46;95139.06;;;27.07;33.23
6132;BME280;3097;42.692;23.278;2023-05-01T08:10:11;95137.09;;;27.25;34.17
6132;BME280;3097;42.692;23.278;2023-05-01T08:12:37;95137.03;;;27.42;33.96
6132;BME280;3097;42.692;23.278;2023-05-01T08:15:02;95139.75;;;26.95;32.04
6132;BME280;3097;42.692;23.278;2023-05-01T08:17:28;95138.00;;;27.00;32.11
6132;BME280;3097;42.692;23.278;2023-05-01T08:19:53;95140.28;;;26.63;32.27
6132;BME280;3097;42.692;23.278;2023-05-01T08:22:21;95132.44;;;26.20;33.69
6132;BME280;3097;42.692;23.278;2023-05-01T08:24:47;95136.94;;;26.45;34.91
6132;BME280;3097;42.692;23.278;2023-05-01T08:27:12;95126.06;;;26.85;33.69
6132;BME280;3097;42.692;23.278;2023-05-01T08:29:38;95129.78;;;26.92;34.65
6132;BME280;3097;42.692;23.278;2023-05-01T08:32:03;95130.84;;;27.00;33.94
6132;BME280;3097;42.692;23.278;2023-05-01T08:34:29;95115.63;;;26.97;33.15
6132;BME280;3097;42.692;23.278;2023-05-01T08:36:54;95136.63;;;26.93;33.32
6132;BME280;3097;42.692;23.278;2023-05-01T08:39:19;95135.69;;;26.34;32.55
6132;BME280;3097;42.692;23.278;2023-05-01T08:41:45;95137.97;;;25.50;33.01
6132;BME280;3097;42.692;23.278;2023-05-01T08:44:15;95112.09;;;25.03;33.78
6132;BME280;3097;42.692;23.278;2023-05-01T08:46:47;95141.06;;;24.86;34.14
6132;BME280;3097;42.692;23.278;2023-05-01T08:49:15;95093.91;;;24.01;34.11
6132;BME280;3097;42.692;23.278;2023-05-01T08:51:44;95133.16;;;24.11;34.31
6132;BME280;3097;42.692;23.278;2023-05-01T08:54:11;95120.63;;;23.72;33.49
6132;BME280;3097;42.692;23.278;2023-05-01T08:56:38;95125.66;;;23.32;35.51
6132;BME280;3097;42.692;23.278;2023-05-01T08:59:04;95124.72;;;23.01;36.86
6132;BME280;3097;42.692;23.278;2023-05-01T09:01:32;95127.25;;;23.06;36.91
6132;BME280;3097;42.692;23.278;2023-05-01T09:04:01;95106.72;;;23.08;38.49
6132;BME280;3097;42.692;23.278;2023-05-01T09:06:27;95122.00;;;22.92;37.26
6132;BME280;3097;42.692;23.278;2023-05-01T09:08:53;95108.72;;;22.70;38.84
6132;BME280;3097;42.692;23.278;2023-05-01T09:11:21;95110.97;;;22.63;38.17
6132;BME280;3097;42.692;23.278;2023-05-01T09:13:47;95115.41;;;22.49;39.52
6132;BME280;3097;42.692;23.278;2023-05-01T09:16:12;95122.06;;;22.60;38.38
6132;BME280;3097;42.692;23.278;2023-05-01T09:18:38;95123.09;;;22.45;37.83
6132;BME280;3097;42.692;23.278;2023-05-01T09:21:05;95121.28;;;22.27;38.08
6132;BME280;3097;42.692;23.278;2023-05-01T09:23:31;95110.63;;;22.05;38.09
6132;BME280;3097;42.692;23.278;2023-05-01T09:25:58;95124.47;;;21.91;37.62
6132;BME280;3097;42.692;23.278;2023-05-01T09:28:41;95128.25;;;21.67;37.83
6132;BME280;3097;42.692;23.278;2023-05-01T09:31:26;95111.56;;;21.39;38.47
6132;BME280;3097;42.692;23.278;2023-05-01T09:33:59;95122.66;;;21.12;40.27
6132;BME280;3097;42.692;23.278;2023-05-01T09:36:27;95127.66;;;21.08;40.23
6132;BME280;3097;42.692;23.278;2023-05-01T09:38:53;95126.78;;;20.94;39.20
6132;BME280;3097;42.692;23.278;2023-05-01T09:41:19;95134.03;;;21.02;40.17
6132;BME280;3097;42.692;23.278;2023-05-01T09:43:55;95121.88;;;20.88;40.97
6132;BME280;3097;42.692;23.278;2023-05-01T09:46:22;95135.03;;;21.06;41.49
6132;BME280;3097;42.692;23.278;2023-05-01T09:48:59;95121.91;;;21.06;42.74
6132;BME280;3097;42.692;23.278;2023-05-01T09:53:53;95120.63;;;21.28;41.86
6132;BME280;3097;42.692;23.278;2023-05-01T09:56:19;95119.53;;;21.10;41.70
6132;BME280;3097;42.692;23.278;2023-05-01T09:58:46;95075.41;;;20.93;42.39
6132;BME280;3097;42.692;23.278;2023-05-01T10:01:11;95115.00;;;21.15;41.79
6132;BME280;3097;42.692;23.278;2023-05-01T10:03:37;95111.34;;;21.16;43.84
6132;BME280;3097;42.692;23.278;2023-05-01T10:06:03;95112.84;;;21.22;42.12
6132;BME280;3097;42.692;23.278;2023-05-01T10:08:48;95110.72;;;21.24;40.35
6132;BME280;3097;42.692;23.278;2023-05-01T10:11:13;95108.16;;;21.19;40.51
6132;BME280;3097;42.692;23.278;2023-05-01T10:13:39;95101.13;;;20.91;40.76
6132;BME280;3097;42.692;23.278;2023-05-01T10:16:05;95102.91;;;20.96;40.81
6132;BME280;3097;42.692;23.278;2023-05-01T10:18:35;95080.06;;;20.54;40.35
6132;BME280;3097;42.692;23.278;2023-05-01T10:21:03;95108.69;;;20.74;39.97
6132;BME280;3097;42.692;23.278;2023-05-01T10:23:29;95098.53;;;20.67;40.92
6132;BME280;3097;42.692;23.278;2023-05-01T10:25:55;95096.91;;;20.71;42.67
6132;BME280;3097;42.692;23.278;2023-05-01T10:28:23;95105.16;;;20.60;40.79
6132;BME280;3097;42.692;23.278;2023-05-01T10:30:50;95104.97;;;20.22;41.45
6132;BME280;3097;42.692;23.278;2023-05-01T10:33:16;95101.19;;;20.04;42.33
6132;BME280;3097;42.692;23.278;2023-05-01T10:35:45;95104.47;;;20.15;43.79
6132;BME280;3097;42.692;23.278;2023-05-01T10:38:22;95021.50;;;19.92;43.90
6132;BME280;3097;42.692;23.278;2023-05-01T10:40:50;95111.63;;;20.67;43.67
6132;BME280;3097;42.692;23.278;2023-05-01T10:45:46;95107.16;;;20.92;44.06
6132;BME280;3097;42.692;23.278;2023-05-01T10:51:17;95091.66;;;21.19;43.71
6132;BME280;3097;42.692;23.278;2023-05-01T10:53:45;95097.34;;;21.26;40.84
6132;BME280;3097;42.692;23.278;2023-05-01T10:59:01;95110.88;;;20.85;39.96
6132;BME280;3097;42.692;23.278;2023-05-01T11:09:40;95095.78;;;20.77;39.76
6132;BME280;3097;42.692;23.278;2023-05-01T11:12:07;95093.41;;;20.81;40.07
6132;BME280;3097;42.692;23.278;2023-05-01T11:20:43;95095.34;;;20.70;40.41
6132;BME280;3097;42.692;23.278;2023-05-01T11:22:58;95081.97;;;20.72;40.34
6132;BME280;3097;42.692;23.278;2023-05-01T11:25:25;95096.56;;;20.78;41.99
6132;BME280;3097;42.692;23.278;2023-05-01T11:27:58;95090.47;;;20.82;41.04
6132;BME280;3097;42.692;23.278;2023-05-01T11:30:24;95098.91;;;20.79;39.75
6132;BME280;3097;42.692;23.278;2023-05-01T11:32:50;95094.16;;;20.58;39.78
6132;BME280;3097;42.692;23.278;2023-05-01T11:35:26;95095.44;;;20.36;39.98
6132;BME280;3097;42.692;23.278;2023-05-01T11:37:52;95091.19;;;20.40;40.30
6132;BME280;3097;42.692;23.278;2023-05-01T11:40:26;95099.00;;;20.45;40.86
6132;BME280;3097;42.692;23.278;2023-05-01T11:43:05;95083.88;;;20.66;40.13
6132;BME280;3097;42.692;23.278;2023-05-01T11:45:32;95088.88;;;20.86;40.19
6132;BME280;3097;42.692;23.278;2023-05-01T11:47:58;95091.94;;;20.94;39.32
6132;BME280;3097;42.692;23.278;2023-05-01T11:50:37;95076.09;;;21.04;39.92
6132;BME280;3097;42.692;23.278;2023-05-01T11:53:13;95069.69;;;21.34;39.44
6132;BME280;3097;42.692;23.278;2023-05-01T11:55:40;95050.03;;;21.31;38.29
6132;BME280;3097;42.692;23.278;2023-05-01T11:58:09;95078.03;;;21.36;37.40
6132;BME280;3097;42.692;23.278;2023-05-01T12:00:40;95067.75;;;21.20;38.15
6132;BME280;3097;42.692;23.278;2023-05-01T12:03:08;95072.38;;;21.29;38.00
6132;BME280;3097;42.692;23.278;2023-05-01T12:05:35;95076.13;;;21.22;37.84
6132;BME280;3097;42.692;23.278;2023-05-01T12:08:12;95076.03;;;20.85;39.02
6132;BME280;3097;42.692;23.278;2023-05-01T12:10:43;95086.53;;;20.85;38.96
6132;BME280;3097;42.692;23.278;2023-05-01T12:13:10;95085.56;;;20.76;40.04
6132;BME280;3097;42.692;23.278;2023-05-01T12:15:39;95082.56;;;20.64;40.71
6132;BME280;3097;42.692;23.278;2023-05-01T12:18:05;95087.53;;;20.65;41.03
6132;BME280;3097;42.692;23.278;2023-05-01T12:20:41;95095.94;;;20.62;40.50
6132;BME280;3097;42.692;23.278;2023-05-01T12:23:11;95086.03;;;20.59;41.25
6132;BME280;3097;42.692;23.278;2023-05-01T12:25:38;95076.16;;;20.51;40.91
6132;BME280;3097;42.692;23.278;2023-05-01T12:28:15;95090.50;;;20.59;40.00
6132;BME280;3097;42.692;23.278;2023-05-01T12:30:42;95088.13;;;20.33;39.25
6132;BME280;3097;42.692;23.278;2023-05-01T12:33:16;95085.63;;;20.18;39.94
6132;BME280;3097;42.692;23.278;2023-05-01T12:35:43;95087.59;;;20.31;39.84
6132;BME280;3097;42.692;23.278;2023-05-01T12:38:17;95093.22;;;20.48;39.99
6132;BME280;3097;42.692;23.278;2023-05-01T12:40:56;95083.63;;;20.63;39.94
6132;BME280;3097;42.692;23.278;2023-05-01T12:43:42;95089.22;;;20.80;39.34
6132;BME280;3097;42.692;23.278;2023-05-01T12:46:13;95094.47;;;20.99;38.65
6132;BME280;3097;42.692;23.278;2023-05-01T12:48:40;95092.91;;;20.98;38.73
6132;BME280;3097;42.692;23.278;2023-05-01T12:51:05;95082.63;;;20.59;38.76
6132;BME280;3097;42.692;23.278;2023-05-01T12:53:32;95057.72;;;20.32;40.28
6132;BME280;3097;42.692;23.278;2023-05-01T12:55:57;95050.63;;;20.09;40.93
6132;BME280;3097;42.692;23.278;2023-05-01T12:58:36;95090.34;;;20.16;40.58
6132;BME280;3097;42.692;23.278;2023-05-01T13:01:01;95083.19;;;19.98;39.83
6132;BME280;3097;42.692;23.278;2023-05-01T13:03:28;95097.13;;;20.17;40.16
6132;BME280;3097;42.692;23.278;2023-05-01T13:05:57;95091.09;;;20.22;40.51
6132;BME280;3097;42.692;23.278;2023-05-01T13:08:41;95101.91;;;20.10;42.72
6132;BME280;3097;42.692;23.278;2023-05-01T13:13:35;95063.53;;;20.29;41.86
6132;BME280;3097;42.692;23.278;2023-05-01T13:16:09;95074.81;;;20.54;41.78
6132;BME280;3097;42.692;23.278;2023-05-01T13:18:54;95090.34;;;20.74;41.50
6132;BME280;3097;42.692;23.278;2023-05-01T13:21:21;95097.69;;;20.96;38.43
6132;BME280;3097;42.692;23.278;2023-05-01T13:23:53;95095.44;;;20.84;39.12
6132;BME280;3097;42.692;23.278;2023-05-01T13:26:27;95096.13;;;20.71;39.39
6132;BME280;3097;42.692;23.278;2023-05-01T13:28:53;95107.16;;;20.68;39.02
6132;BME280;3097;42.692;23.278;2023-05-01T13:31:19;95070.69;;;20.47;36.70
6132;BME280;3097;42.692;23.278;2023-05-01T13:33:49;95102.81;;;20.58;41.63
6132;BME280;3097;42.692;23.278;2023-05-01T13:36:15;95105.44;;;20.58;41.97
6132;BME280;3097;42.692;23.278;2023-05-01T13:38:43;95112.88;;;20.46;41.65
6132;BME280;3097;42.692;23.278;2023-05-01T13:41:17;95108.47;;;20.41;41.50
6132;BME280;3097;42.692;23.278;2023-05-01T13:43:47;95114.31;;;20.33;41.92
6132;BME280;3097;42.692;23.278;2023-05-01T13:46:14;95117.09;;;20.13;42.45
6132;BME280;3097;42.692;23.278;2023-05-01T13:48:40;95117.69;;;20.00;42.56
6132;BME280;3097;42.692;23.278;2023-05-01T13:51:07;95121.22;;;19.85;42.87